sensor_id;sensor_type;location;lat;lon;timestamp;pressure;altitude;pressure_sealevel;temperature;humidity
6829;BME280;17930;48.592;8.868;2023-05-02T00:01:13;96870.56;;;8.11;100.00
6829;BME280;17930;48.592;8.868;2023-05-02T00:03:40;96867.97;;;8.11;100.00
6829;BME280;17930;48.592;8.868;2023-05-02T00:06:07;96865.94;;;8.13;100.00
6829;BME280;17930;48.592;8.868;2023-05-02T00:08:35;96869.53;;;8.12;100.00
6829;BME280;17930;48.592;8.868;2023-05-02T00:11:02;96858.66;;;8.15;100.00
6829;BME280;17930;48.592;8.868;2023-05-02T00:13:31;96854.47;;;8.09;100.00
6829;BME280;17930;48.592;8.868;2023-05-02T00:15:57;96857.28;;;8.02;100.00
6829;BME280;17930;48.592;8.868;2023-05-02T00:18:24;96864.22;;;7.92;100.00
6829;BME280;17930;48.592;8.868;2023-05-02T00:20:50;96862.59;;;7.81;100.00
6829;BME280;17930;48.592;8.868;2023-05-02T00:23:17;96865.91;;;7.66;100.00
6829;BME280;17930;48.592;8.868;2023-05-02T00:25:44;96860.13;;;7.55;100.00
6829;BME280;17930;48.592;8.868;2023-05-02T00:28:11;96858.78;;;7.47;100.00
6829;BME280;17930;48.592;8.868;2023-05-02T00:30:42;96862.34;;;7.41;100.00
6829;BME280;17930;48.592;8.868;2023-05-02T00:33:09;96871.69;;;7.37;100.00
6829;BME280;17930;48.592;8.868;2023-05-02T00:35:36;96874.22;;;7.32;100.00
6829;BME280;17930;48.592;8.868;2023-05-02T00:38:03;96876.03;;;7.32;100.00
6829;BME280;17930;48.592;8.868;2023-05-02T00:40:30;96874.75;;;7.34;100.00
6829;BME280;17930;48.592;8.868;2023-05-02T00:42:56;96875.28;;;7.36;100.00
6829;BME280;17930;48.592;8.868;2023-05-02T00:45:23;96872.38;;;7.28;100.00
6829;BME280;17930;48.592;8.868;2023-05-02T00:47:51;96873.53;;;7.11;100.00
6829;BME280;17930;48.592;8.868;2023-05-02T00:50:18;96877.91;;;7.10;100.00
6829;BME280;17930;48.592;8.868;2023-05-02T00:52:45;96876.31;;;7.04;100.00
6829;BME280;17930;48.592;8.868;2023-05-02T00:55:12;96872.38;;;7.02;100.00
6829;BME280;17930;48.592;8.868;2023-05-02T00:57:38;96876.56;;;7.03;100.00
6829;BME280;17930;48.592;8.868;2023-05-02T01:00:07;96874.50;;;7.05;100.00
6829;BME280;17930;48.592;8.868;2023-05-02T01:02:42;96879.72;;;7.10;100.00
6829;BME280;17930;48.592;8.868;2023-05-02T01:05:16;96876.66;;;7.17;100.00
6829;BME280;17930;48.592;8.868;2023-05-02T01:07:57;96878.81;;;7.25;100.00
6829;BME280;17930;48.592;8.868;2023-05-02T01:10:37;96882.19;;;7.26;100.00
6829;BME280;17930;48.592;8.868;2023-05-02T01:13:09;96884.66;;;7.11;100.00
6829;BME280;17930;48.592;8.868;2023-05-02T01:15:39;96876.59;;;7.08;100.00
6829;BME280;17930;48.592;8.868;2023-05-02T01:18:08;96879.88;;;6.98;100.00
6829;BME280;17930;48.592;8.868;2023-05-02T01:20:38;96877.47;;;6.92;100.00
6829;BME280;17930;48.592;8.868;2023-05-02T01:23:12;96881.59;;;6.88;100.00
6829;BME280;17930;48.592;8.868;2023-05-02T01:25:52;96878.81;;;6.94;100.00
6829;BME280;17930;48.592;8.868;2023-05-02T01:28:32;96880.47;;;6.79;100.00
6829;BME280;17930;48.592;8.868;2023-05-02T01:31:02;96876.19;;;6.68;100.00
6829;BME280;17930;48.592;8.868;2023-05-02T01:33:30;96875.41;;;6.63;100.00
6829;BME280;17930;48.592;8.868;2023-05-02T01:35:59;96886.19;;;6.55;100.00
6829;BME280;17930;48.592;8.868;2023-05-02T01:38:28;96881.66;;;6.45;100.00
6829;BME280;17930;48.592;8.868;2023-05-02T01:40:56;96893.41;;;6.53;100.00
6829;BME280;17930;48.592;8.868;2023-05-02T01:43:29;96892.63;;;6.52;100.00
6829;BME280;17930;48.592;8.868;2023-05-02T01:45:59;96890.59;;;6.54;100.00
6829;BME280;17930;48.592;8.868;2023-05-02T01:48:30;96888.69;;;6.50;100.00
6829;BME280;17930;48.592;8.868;2023-05-02T01:50:57;96885.06;;;6.46;100.00
6829;BME280;17930;48.592;8.868;2023-05-02T01:53:25;96887.88;;;6.44;100.00
6829;BME280;17930;48.592;8.868;2023-05-02T01:55:54;96894.00;;;6.38;100.00
6829;BME280;17930;48.592;8.868;2023-05-02T01:58:24;96889.75;;;6.27;100.00
6829;BME280;17930;48.592;8.868;2023-05-02T02:00:53;96886.00;;;6.18;100.00
6829;BME280;17930;48.592;8.868;2023-05-02T02:03:21;96888.78;;;6.33;100.00
6829;BME280;17930;48.592;8.868;2023-05-02T02:05:50;96886.59;;;6.25;100.00
6829;BME280;17930;48.592;8.868;2023-05-02T02:08:18;96893.72;;;6.13;100.00
6829;BME280;17930;48.592;8.868;2023-05-02T02:10:49;96889.78;;;6.11;100.00
6829;BME280;17930;48.592;8.868;2023-05-02T02:13:26;96894.81;;;6.17;100.00
6829;BME280;17930;48.592;8.868;2023-05-02T02:15:58;96900.47;;;6.14;100.00
6829;BME280;17930;48.592;8.868;2023-05-02T02:18:26;96905.16;;;6.17;100.00
6829;BME280;17930;48.592;8.868;2023-05-02T02:20:57;96907.63;;;6.29;100.00
6829;BME280;17930;48.592;8.868;2023-05-02T02:23:27;96904.31;;;6.33;100.00
6829;BME280;17930;48.592;8.868;2023-05-02T02:25:55;96909.38;;;6.23;100.00
6829;BME280;17930;48.592;8.868;2023-05-02T02:28:22;96909.53;;;6.38;100.00
6829;BME280;17930;48.592;8.868;2023-05-02T02:30:49;96914.06;;;6.69;100.00
6829;BME280;17930;48.592;8.868;2023-05-02T02:33:16;96905.16;;;6.86;100.00
6829;BME280;17930;48.592;8.868;2023-05-02T02:35:48;96909.47;;;6.76;100.00
6829;BME280;17930;48.592;8.868;2023-05-02T02:38:25;96904.66;;;6.63;100.00
6829;BME280;17930;48.592;8.868;2023-05-02T02:41:01;96914.97;;;6.58;100.00
6829;BME280;17930;48.592;8.868;2023-05-02T02:43:36;96922.44;;;6.76;100.00
6829;BME280;17930;48.592;8.868;2023-05-02T02:46:14;96916.34;;;6.87;100.00
6829;BME280;17930;48.592;8.868;2023-05-02T02:48:48;96922.09;;;6.94;100.00
6829;BME280;17930;48.592;8.868;2023-05-02T02:51:23;96912.59;;;7.04;100.00
6829;BME280;17930;48.592;8.868;2023-05-02T02:53:59;96924.34;;;7.12;100.00
6829;BME280;17930;48.592;8.868;2023-05-02T02:56:29;96928.78;;;7.16;100.00
6829;BME280;17930;48.592;8.868;2023-05-02T02:59:04;96926.91;;;7.07;100.00
6829;BME280;17930;48.592;8.868;2023-05-02T03:01:33;96925.34;;;7.37;100.00
6829;BME280;17930;48.592;8.868;2023-05-02T03:04:04;96930.69;;;7.25;100.00
6829;BME280;17930;48.592;8.868;2023-05-02T03:06:33;96933.50;;;7.19;100.00
6829;BME280;17930;48.592;8.868;2023-05-02T03:09:01;96932.88;;;7.33;100.00
6829;BME280;17930;48.592;8.868;2023-05-02T03:11:28;96939.28;;;7.57;100.00
6829;BME280;17930;48.592;8.868;2023-05-02T03:13:55;96942.75;;;7.36;100.00
6829;BME280;17930;48.592;8.868;2023-05-02T03:16:31;96954.47;;;7.17;100.00
6829;BME280;17930;48.592;8.868;2023-05-02T03:18:59;96959.09;;;7.11;100.00
6829;BME280;17930;48.592;8.868;2023-05-02T03:21:25;96957.91;;;6.97;100.00
6829;BME280;17930;48.592;8.868;2023-05-02T03:23:52;96957.84;;;6.92;100.00
6829;BME280;17930;48.592;8.868;2023-05-02T03:26:20;96962.19;;;6.86;100.00
6829;BME280;17930;48.592;8.868;2023-05-02T03:28:47;96971.59;;;6.92;100.00
6829;BME280;17930;48.592;8.868;2023-05-02T03:31:14;96965.44;;;6.98;100.00
6829;BME280;17930;48.592;8.868;2023-05-02T03:33:41;96961.84;;;6.99;100.00
6829;BME280;17930;48.592;8.868;2023-05-02T03:36:08;96975.09;;;6.81;100.00
6829;BME280;17930;48.592;8.868;2023-05-02T03:38:35;96978.09;;;6.73;100.00
6829;BME280;17930;48.592;8.868;2023-05-02T03:41:02;96979.41;;;6.71;100.00
6829;BME280;17930;48.592;8.868;2023-05-02T03:43:30;96992.88;;;6.73;100.00
6829;BME280;17930;48.592;8.868;2023-05-02T03:46:02;96990.44;;;6.88;100.00
6829;BME280;17930;48.592;8.868;2023-05-02T03:48:29;96992.16;;;6.99;100.00
6829;BME280;17930;48.592;8.868;2023-05-02T03:50:56;96996.94;;;7.12;100.00
6829;BME280;17930;48.592;8.868;2023-05-02T03:53:22;96996.19;;;7.11;100.00
6829;BME280;17930;48.592;8.868;2023-05-02T03:55:49;96994.94;;;7.18;100.00
6829;BME280;17930;48.592;8.868;2023-05-02T03:58:16;96998.09;;;7.20;100.00
6829;BME280;17930;48.592;8.868;2023-05-02T04:00:43;97002.25;;;7.21;100.00
6829;BME280;17930;48.592;8.868;2023-05-02T04:03:10;96999.41;;;7.49;100.00
6829;BME280;17930;48.592;8.868;2023-05-02T04:05:37;97006.28;;;7.60;100.00
6829;BME280;17930;48.592;8.868;2023-05-02T04:08:04;97003.63;;;7.55;100.00
6829;BME280;17930;48.592;8.868;2023-05-02T04:10:31;97003.72;;;7.65;100.00
6829;BME280;17930;48.592;8.868;2023-05-02T04:12:57;97009.97;;;7.69;100.00
6829;BME280;17930;48.592;8.868;2023-05-02T04:15:25;97004.38;;;7.82;100.00
6829;BME280;17930;48.592;8.868;2023-05-02T04:17:53;97007.50;;;7.84;100.00
6829;BME280;17930;48.592;8.868;2023-05-02T04:20:20;97006.72;;;7.83;100.00
6829;BME280;17930;48.592;8.868;2023-05-02T04:22:46;97013.97;;;7.81;100.00
6829;BME280;17930;48.592;8.868;2023-05-02T04:25:15;97018.53;;;8.01;100.00
6829;BME280;17930;48.592;8.868;2023-05-02T04:27:42;97020.53;;;7.89;100.00
6829;BME280;17930;48.592;8.868;2023-05-02T04:30:09;97022.97;;;8.00;100.00
6829;BME280;17930;48.592;8.868;2023-05-02T04:32:36;97024.72;;;7.95;100.00
6829;BME280;17930;48.592;8.868;2023-05-02T04:35:05;97021.47;;;8.09;100.00
6829;BME280;17930;48.592;8.868;2023-05-02T04:37:31;97024.22;;;7.98;100.00
6829;BME280;17930;48.592;8.868;2023-05-02T04:39:58;97017.00;;;8.05;100.00
6829;BME280;17930;48.592;8.868;2023-05-02T04:42:25;97027.66;;;7.72;100.00
6829;BME280;17930;48.592;8.868;2023-05-02T04:44:51;97036.47;;;7.71;100.00
6829;BME280;17930;48.592;8.868;2023-05-02T04:47:18;97030.72;;;7.95;100.00
6829;BME280;17930;48.592;8.868;2023-05-02T04:49:45;97039.81;;;7.98;100.00
6829;BME280;17930;48.592;8.868;2023-05-02T04:52:13;97036.44;;;7.97;100.00
6829;BME280;17930;48.592;8.868;2023-05-02T04:54:40;97031.06;;;7.77;100.00
6829;BME280;17930;48.592;8.868;2023-05-02T04:57:07;97039.63;;;7.78;100.00
6829;BME280;17930;48.592;8.868;2023-05-02T04:59:34;97032.50;;;7.90;100.00
6829;BME280;17930;48.592;8.868;2023-05-02T05:02:01;97051.19;;;7.92;100.00
6829;BME280;17930;48.592;8.868;2023-05-02T05:04:28;97039.78;;;7.93;100.00
6829;BME280;17930;48.592;8.868;2023-05-02T05:06:54;97048.59;;;7.92;100.00
6829;BME280;17930;48.592;8.868;2023-05-02T05:09:23;97043.38;;;7.87;100.00
6829;BME280;17930;48.592;8.868;2023-05-02T05:11:49;97050.59;;;7.85;100.00
6829;BME280;17930;48.592;8.868;2023-05-02T05:14:16;97055.69;;;8.01;100.00
6829;BME280;17930;48.592;8.868;2023-05-02T05:16:42;97049.34;;;7.87;100.00
6829;BME280;17930;48.592;8.868;2023-05-02T05:19:09;97056.47;;;8.02;100.00
6829;BME280;17930;48.592;8.868;2023-05-02T05:21:35;97070.56;;;8.11;100.00
6829;BME280;17930;48.592;8.868;2023-05-02T05:24:02;97063.81;;;8.10;100.00
6829;BME280;17930;48.592;8.868;2023-05-02T05:26:31;97064.75;;;8.25;100.00
6829;BME280;17930;48.592;8.868;2023-05-02T05:28:57;97073.59;;;8.29;100.00
6829;BME280;17930;48.592;8.868;2023-05-02T05:31:24;97076.44;;;8.27;100.00
6829;BME280;17930;48.592;8.868;2023-05-02T05:33:50;97083.22;;;8.28;100.00
6829;BME280;17930;48.592;8.868;2023-05-02T05:36:17;97079.88;;;8.33;100.00
6829;BME280;17930;48.592;8.868;2023-05-02T05:38:44;97099.56;;;8.24;100.00
6829;BME280;17930;48.592;8.868;2023-05-02T05:41:11;97102.78;;;8.10;100.00
6829;BME280;17930;48.592;8.868;2023-05-02T05:43:39;97111.44;;;8.15;100.00
6829;BME280;17930;48.592;8.868;2023-05-02T05:46:06;97111.84;;;8.33;100.00
6829;BME280;17930;48.592;8.868;2023-05-02T05:48:32;97115.47;;;8.32;100.00
6829;BME280;17930;48.592;8.868;2023-05-02T05:51:02;97109.47;;;8.63;100.00
6829;BME280;17930;48.592;8.868;2023-05-02T05:53:29;97115.13;;;8.60;100.00
6829;BME280;17930;48.592;8.868;2023-05-02T05:55:56;97111.84;;;8.69;100.00
6829;BME280;17930;48.592;8.868;2023-05-02T05:58:23;97115.78;;;8.77;100.00
6829;BME280;17930;48.592;8.868;2023-05-02T06:00:54;97116.88;;;8.86;100.00
6829;BME280;17930;48.592;8.868;2023-05-02T06:03:20;97120.69;;;8.73;100.00
6829;BME280;17930;48.592;8.868;2023-05-02T06:05:47;97122.59;;;8.83;100.00
6829;BME280;17930;48.592;8.868;2023-05-02T06:08:14;97116.03;;;8.75;100.00
6829;BME280;17930;48.592;8.868;2023-05-02T06:10:40;97121.28;;;8.80;100.00
6829;BME280;17930;48.592;8.868;2023-05-02T06:13:07;97119.00;;;8.94;100.00
6829;BME280;17930;48.592;8.868;2023-05-02T06:15:34;97125.84;;;9.05;100.00
6829;BME280;17930;48.592;8.868;2023-05-02T06:18:02;97132.09;;;9.09;100.00
6829;BME280;17930;48.592;8.868;2023-05-02T06:20:28;97131.81;;;9.05;100.00
6829;BME280;17930;48.592;8.868;2023-05-02T06:22:55;97144.25;;;8.98;100.00
6829;BME280;17930;48.592;8.868;2023-05-02T06:25:22;97142.78;;;9.12;100.00
6829;BME280;17930;48.592;8.868;2023-05-02T06:27:48;97146.06;;;8.98;100.00
6829;BME280;17930;48.592;8.868;2023-05-02T06:30:15;97143.34;;;9.19;100.00
6829;BME280;17930;48.592;8.868;2023-05-02T06:32:42;97150.94;;;9.30;100.00
6829;BME280;17930;48.592;8.868;2023-05-02T06:35:10;97150.97;;;9.40;100.00
6829;BME280;17930;48.592;8.868;2023-05-02T06:37:37;97157.59;;;9.58;100.00
6829;BME280;17930;48.592;8.868;2023-05-02T06:40:04;97149.00;;;9.62;100.00
6829;BME280;17930;48.592;8.868;2023-05-02T06:42:31;97149.97;;;9.46;100.00
6829;BME280;17930;48.592;8.868;2023-05-02T06:44:58;97162.56;;;9.74;100.00
6829;BME280;17930;48.592;8.868;2023-05-02T06:47:25;97161.56;;;9.90;100.00
6829;BME280;17930;48.592;8.868;2023-05-02T06:49:52;97160.09;;;10.09;100.00
6829;BME280;17930;48.592;8.868;2023-05-02T06:52:20;97158.56;;;10.27;100.00
6829;BME280;17930;48.592;8.868;2023-05-02T06:54:47;97153.88;;;10.39;100.00
6829;BME280;17930;48.592;8.868;2023-05-02T06:57:14;97152.06;;;10.60;100.00
6829;BME280;17930;48.592;8.868;2023-05-02T06:59:41;97154.16;;;10.63;100.00
6829;BME280;17930;48.592;8.868;2023-05-02T07:02:07;97159.88;;;10.84;100.00
6829;BME280;17930;48.592;8.868;2023-05-02T07:04:34;97157.00;;;10.91;100.00
6829;BME280;17930;48.592;8.868;2023-05-02T07:07:01;97168.44;;;11.24;100.00
6829;BME280;17930;48.592;8.868;2023-05-02T07:09:29;97164.78;;;11.21;100.00
6829;BME280;17930;48.592;8.868;2023-05-02T07:11:56;97168.72;;;11.03;100.00
6829;BME280;17930;48.592;8.868;2023-05-02T07:14:23;97164.25;;;11.19;100.00
6829;BME280;17930;48.592;8.868;2023-05-02T07:16:49;97167.38;;;11.30;100.00
6829;BME280;17930;48.592;8.868;2023-05-02T07:19:16;97177.78;;;11.40;100.00
6829;BME280;17930;48.592;8.868;2023-05-02T07:21:43;97176.13;;;11.69;100.00
6829;BME280;17930;48.592;8.868;2023-05-02T07:24:09;97173.69;;;11.92;100.00
6829;BME280;17930;48.592;8.868;2023-05-02T07:26:37;97180.22;;;11.90;100.00
6829;BME280;17930;48.592;8.868;2023-05-02T07:29:04;97181.44;;;11.54;100.00
6829;BME280;17930;48.592;8.868;2023-05-02T07:31:33;97173.91;;;11.96;100.00
6829;BME280;17930;48.592;8.868;2023-05-02T07:33:59;97174.56;;;12.21;100.00
6829;BME280;17930;48.592;8.868;2023-05-02T07:36:26;97178.00;;;12.17;100.00
6829;BME280;17930;48.592;8.868;2023-05-02T07:38:53;97177.94;;;12.22;100.00
6829;BME280;17930;48.592;8.868;2023-05-02T07:41:19;97171.78;;;12.79;100.00
6829;BME280;17930;48.592;8.868;2023-05-02T07:43:47;97172.19;;;13.24;100.00
6829;BME280;17930;48.592;8.868;2023-05-02T07:46:14;97181.75;;;12.77;100.00
6829;BME280;17930;48.592;8.868;2023-05-02T07:48:41;97189.25;;;12.55;100.00
6829;BME280;17930;48.592;8.868;2023-05-02T07:51:09;97190.25;;;12.97;100.00
6829;BME280;17930;48.592;8.868;2023-05-02T07:53:36;97189.22;;;13.22;100.00
6829;BME280;17930;48.592;8.868;2023-05-02T07:56:03;97191.53;;;13.00;100.00
6829;BME280;17930;48.592;8.868;2023-05-02T07:58:30;97195.47;;;13.26;100.00
6829;BME280;17930;48.592;8.868;2023-05-02T08:00:58;97201.00;;;13.47;100.00
6829;BME280;17930;48.592;8.868;2023-05-02T08:03:25;97207.59;;;13.68;100.00
6829;BME280;17930;48.592;8.868;2023-05-02T08:05:52;97216.53;;;13.16;100.00
6829;BME280;17930;48.592;8.868;2023-05-02T08:08:19;97210.75;;;13.19;100.00
6829;BME280;17930;48.592;8.868;2023-05-02T08:10:45;97218.19;;;13.07;100.00
6829;BME280;17930;48.592;8.868;2023-05-02T08:13:12;97218.84;;;12.94;100.00
6829;BME280;17930;48.592;8.868;2023-05-02T08:15:38;97221.28;;;13.14;100.00
6829;BME280;17930;48.592;8.868;2023-05-02T08:18:06;97225.41;;;12.91;100.00
6829;BME280;17930;48.592;8.868;2023-05-02T08:20:33;97227.47;;;12.89;100.00
6829;BME280;17930;48.592;8.868;2023-05-02T08:23:00;97226.81;;;13.35;100.00
6829;BME280;17930;48.592;8.868;2023-05-02T08:25:27;97224.84;;;13.74;100.00
6829;BME280;17930;48.592;8.868;2023-05-02T08:27:55;97229.97;;;13.61;100.00
6829;BME280;17930;48.592;8.868;2023-05-02T08:30:21;97230.72;;;13.66;100.00
6829;BME280;17930;48.592;8.868;2023-05-02T08:32:48;97229.41;;;13.87;100.00
6829;BME280;17930;48.592;8.868;2023-05-02T08:35:16;97227.50;;;13.92;100.00
6829;BME280;17930;48.592;8.868;2023-05-02T08:37:42;97232.34;;;13.57;100.00
6829;BME280;17930;48.592;8.868;2023-05-02T08:40:11;97236.16;;;13.70;100.00
6829;BME280;17930;48.592;8.868;2023-05-02T08:42:40;97232.47;;;13.47;100.00
6829;BME280;17930;48.592;8.868;2023-05-02T08:45:07;97231.41;;;13.95;100.00
6829;BME280;17930;48.592;8.868;2023-05-02T08:47:35;97233.41;;;14.44;100.00
6829;BME280;17930;48.592;8.868;2023-05-02T08:50:05;97225.28;;;15.14;100.00
6829;BME280;17930;48.592;8.868;2023-05-02T08:52:33;97233.72;;;15.56;100.00
6829;BME280;17930;48.592;8.868;2023-05-02T08:55:02;97240.88;;;16.09;100.00
6829;BME280;17930;48.592;8.868;2023-05-02T08:57:29;97238.56;;;16.92;100.00
6829;BME280;17930;48.592;8.868;2023-05-02T08:59:56;97243.63;;;17.23;100.00
6829;BME280;17930;48.592;8.868;2023-05-02T09:02:36;97249.16;;;17.44;100.00
6829;BME280;17930;48.592;8.868;2023-05-02T09:05:06;97247.38;;;17.91;100.00
6829;BME280;17930;48.592;8.868;2023-05-02T09:07:44;97248.50;;;18.07;100.00
6829;BME280;17930;48.592;8.868;2023-05-02T09:10:11;97250.47;;;18.40;100.00
6829;BME280;17930;48.592;8.868;2023-05-02T09:12:38;97257.13;;;18.21;100.00
6829;BME280;17930;48.592;8.868;2023-05-02T09:15:09;97252.63;;;17.83;100.00
6829;BME280;17930;48.592;8.868;2023-05-02T09:17:40;97261.44;;;17.48;100.00
6829;BME280;17930;48.592;8.868;2023-05-02T09:20:09;97254.72;;;17.72;100.00
6829;BME280;17930;48.592;8.868;2023-05-02T09:22:36;97270.44;;;17.47;100.00
6829;BME280;17930;48.592;8.868;2023-05-02T09:25:05;97259.41;;;17.45;100.00
6829;BME280;17930;48.592;8.868;2023-05-02T09:27:51;97261.13;;;17.71;100.00
6829;BME280;17930;48.592;8.868;2023-05-02T09:30:20;97268.78;;;17.29;100.00
6829;BME280;17930;48.592;8.868;2023-05-02T09:32:48;97268.50;;;17.31;100.00
6829;BME280;17930;48.592;8.868;2023-05-02T09:35:15;97259.34;;;17.97;100.00
6829;BME280;17930;48.592;8.868;2023-05-02T09:37:52;97259.19;;;19.58;100.00
6829;BME280;17930;48.592;8.868;2023-05-02T09:40:20;97265.25;;;18.41;100.00
6829;BME280;17930;48.592;8.868;2023-05-02T09:42:49;97263.13;;;18.13;100.00
6829;BME280;17930;48.592;8.868;2023-05-02T09:45:22;97267.59;;;18.43;100.00
6829;BME280;17930;48.592;8.868;2023-05-02T09:47:50;97273.06;;;18.71;100.00
6829;BME280;17930;48.592;8.868;2023-05-02T09:50:31;97261.44;;;21.32;100.00
6829;BME280;17930;48.592;8.868;2023-05-02T09:53:03;97271.94;;;21.29;100.00
6829;BME280;17930;48.592;8.868;2023-05-02T09:55:31;97261.19;;;22.13;100.00
6829;BME280;17930;48.592;8.868;2023-05-02T09:58:00;97260.47;;;23.27;100.00
6829;BME280;17930;48.592;8.868;2023-05-02T10:00:41;97271.50;;;21.59;100.00
6829;BME280;17930;48.592;8.868;2023-05-02T10:03:09;97270.63;;;19.25;100.00
6829;BME280;17930;48.592;8.868;2023-05-02T10:05:36;97262.75;;;20.08;100.00
6829;BME280;17930;48.592;8.868;2023-05-02T10:08:05;97261.28;;;22.65;100.00
6829;BME280;17930;48.592;8.868;2023-05-02T10:10:35;97255.75;;;23.36;100.00
6829;BME280;17930;48.592;8.868;2023-05-02T10:13:03;97244.13;;;24.48;98.46
6829;BME280;17930;48.592;8.868;2023-05-02T10:15:31;97249.94;;;24.69;88.58
6829;BME280;17930;48.592;8.868;2023-05-02T10:17:59;97248.88;;;23.35;87.48
6829;BME280;17930;48.592;8.868;2023-05-02T10:20:31;97257.03;;;23.26;98.13
6829;BME280;17930;48.592;8.868;2023-05-02T10:23:00;97258.09;;;24.41;92.13
6829;BME280;17930;48.592;8.868;2023-05-02T10:25:27;97258.34;;;23.20;97.47
6829;BME280;17930;48.592;8.868;2023-05-02T10:27:56;97255.22;;;23.58;93.85
6829;BME280;17930;48.592;8.868;2023-05-02T10:30:25;97254.41;;;23.15;91.69
6829;BME280;17930;48.592;8.868;2023-05-02T10:32:52;97254.47;;;23.88;91.70
6829;BME280;17930;48.592;8.868;2023-05-02T10:35:20;97250.09;;;24.75;85.61
6829;BME280;17930;48.592;8.868;2023-05-02T10:37:47;97248.84;;;24.54;82.30
6829;BME280;17930;48.592;8.868;2023-05-02T10:40:15;97245.38;;;23.73;80.92
6829;BME280;17930;48.592;8.868;2023-05-02T10:42:43;97252.78;;;22.35;90.16
6829;BME280;17930;48.592;8.868;2023-05-02T10:45:29;97256.06;;;20.88;100.00
6829;BME280;17930;48.592;8.868;2023-05-02T10:48:16;97247.44;;;23.53;96.07
6829;BME280;17930;48.592;8.868;2023-05-02T10:50:44;97241.03;;;25.36;76.93
6829;BME280;17930;48.592;8.868;2023-05-02T10:53:25;97237.78;;;25.87;70.06
6829;BME280;17930;48.592;8.868;2023-05-02T10:56:12;97252.91;;;23.71;78.76
6829;BME280;17930;48.592;8.868;2023-05-02T10:58:39;97245.31;;;22.65;82.61
6829;BME280;17930;48.592;8.868;2023-05-02T11:01:37;97245.75;;;22.78;89.76
6829;BME280;17930;48.592;8.868;2023-05-02T11:04:08;97237.16;;;24.77;84.34
6829;BME280;17930;48.592;8.868;2023-05-02T11:06:36;97232.19;;;25.74;76.33
6829;BME280;17930;48.592;8.868;2023-05-02T11:09:32;97235.06;;;24.86;74.30
6829;BME280;17930;48.592;8.868;2023-05-02T11:12:00;97235.19;;;24.74;83.79
6829;BME280;17930;48.592;8.868;2023-05-02T11:14:42;97243.34;;;24.47;78.30
6829;BME280;17930;48.592;8.868;2023-05-02T11:17:13;97235.66;;;25.74;69.82
6829;BME280;17930;48.592;8.868;2023-05-02T11:22:53;97228.56;;;25.63;65.57
6829;BME280;17930;48.592;8.868;2023-05-02T11:25:39;97229.41;;;25.48;65.31
6829;BME280;17930;48.592;8.868;2023-05-02T11:28:31;97228.72;;;25.51;62.85
6829;BME280;17930;48.592;8.868;2023-05-02T11:30:54;97230.03;;;25.00;68.83
6829;BME280;17930;48.592;8.868;2023-05-02T11:33:22;97225.13;;;24.34;67.59
6829;BME280;17930;48.592;8.868;2023-05-02T11:35:48;97215.41;;;26.73;63.50
6829;BME280;17930;48.592;8.868;2023-05-02T11:38:17;97210.22;;;26.86;60.51
6829;BME280;17930;48.592;8.868;2023-05-02T11:40:56;97212.06;;;27.08;57.17
6829;BME280;17930;48.592;8.868;2023-05-02T11:43:23;97218.44;;;26.42;61.70
6829;BME280;17930;48.592;8.868;2023-05-02T11:45:51;97227.34;;;24.32;66.06
6829;BME280;17930;48.592;8.868;2023-05-02T11:48:20;97238.38;;;22.99;71.97
6829;BME280;17930;48.592;8.868;2023-05-02T11:50:50;97231.19;;;22.25;79.50
6829;BME280;17930;48.592;8.868;2023-05-02T11:53:19;97234.91;;;21.76;82.18
6829;BME280;17930;48.592;8.868;2023-05-02T11:55:48;97240.91;;;22.09;86.38
6829;BME280;17930;48.592;8.868;2023-05-02T11:58:17;97227.97;;;24.41;75.08
6829;BME280;17930;48.592;8.868;2023-05-02T12:00:45;97217.78;;;25.37;70.54
6829;BME280;17930;48.592;8.868;2023-05-02T12:03:27;97207.28;;;26.40;64.24
6829;BME280;17930;48.592;8.868;2023-05-02T12:05:56;97202.50;;;27.47;59.27
6829;BME280;17930;48.592;8.868;2023-05-02T12:08:26;97202.13;;;26.54;57.83
6829;BME280;17930;48.592;8.868;2023-05-02T12:10:54;97216.22;;;25.36;59.36
6829;BME280;17930;48.592;8.868;2023-05-02T12:13:23;97214.75;;;23.25;67.79
6829;BME280;17930;48.592;8.868;2023-05-02T12:15:50;97222.09;;;22.26;73.35
6829;BME280;17930;48.592;8.868;2023-05-02T12:18:18;97213.16;;;24.28;70.71
6829;BME280;17930;48.592;8.868;2023-05-02T12:20:49;97206.53;;;25.91;65.29
6829;BME280;17930;48.592;8.868;2023-05-02T12:23:18;97206.25;;;25.33;62.23
6829;BME280;17930;48.592;8.868;2023-05-02T12:25:46;97201.84;;;25.85;63.45
6829;BME280;17930;48.592;8.868;2023-05-02T12:28:13;97214.97;;;25.11;62.84
6829;BME280;17930;48.592;8.868;2023-05-02T12:30:40;97213.38;;;23.73;64.98
6829;BME280;17930;48.592;8.868;2023-05-02T12:33:07;97222.84;;;22.14;70.70
6829;BME280;17930;48.592;8.868;2023-05-02T12:35:34;97220.81;;;23.10;72.40
6829;BME280;17930;48.592;8.868;2023-05-02T12:38:09;97215.94;;;23.70;65.37
6829;BME280;17930;48.592;8.868;2023-05-02T12:40:38;97225.50;;;23.86;71.34
6829;BME280;17930;48.592;8.868;2023-05-02T12:43:05;97224.03;;;24.04;68.42
6829;BME280;17930;48.592;8.868;2023-05-02T12:45:35;97222.97;;;24.92;71.72
6829;BME280;17930;48.592;8.868;2023-05-02T12:48:16;97222.78;;;25.38;70.24
6829;BME280;17930;48.592;8.868;2023-05-02T12:50:43;97224.41;;;25.65;65.84
6829;BME280;17930;48.592;8.868;2023-05-02T12:53:10;97223.50;;;25.17;64.52
6829;BME280;17930;48.592;8.868;2023-05-02T12:55:38;97236.75;;;25.32;63.44
6829;BME280;17930;48.592;8.868;2023-05-02T12:58:06;97227.53;;;25.07;64.78
6829;BME280;17930;48.592;8.868;2023-05-02T13:00:36;97225.66;;;25.11;64.10
6829;BME280;17930;48.592;8.868;2023-05-02T13:03:03;97234.91;;;24.98;64.93
6829;BME280;17930;48.592;8.868;2023-05-02T13:05:30;97220.22;;;25.45;62.17
6829;BME280;17930;48.592;8.868;2023-05-02T13:07:57;97237.25;;;25.79;62.74
6829;BME280;17930;48.592;8.868;2023-05-02T13:10:24;97219.97;;;25.73;62.82
6829;BME280;17930;48.592;8.868;2023-05-02T13:12:52;97226.72;;;26.11;62.17
6829;BME280;17930;48.592;8.868;2023-05-02T13:15:19;97222.72;;;25.16;64.76
6829;BME280;17930;48.592;8.868;2023-05-02T13:17:48;97225.44;;;25.38;66.61
6829;BME280;17930;48.592;8.868;2023-05-02T13:20:15;97226.00;;;23.76;71.90